createdAt,value
2022-11-25T00:01:25.796Z,3.20
2022-11-25T00:03:56.498Z,4.30
2022-11-25T00:06:24.690Z,3.20
2022-11-25T00:08:56.146Z,3.10
2022-11-25T00:11:23.579Z,3.90
2022-11-25T00:13:51.379Z,5.10
2022-11-25T00:16:21.947Z,4.20
2022-11-25T00:18:51.791Z,3.60
2022-11-25T00:21:24.911Z,5.17
2022-11-25T00:23:54.202Z,3.70
2022-11-25T00:26:22.543Z,6.20
2022-11-25T00:28:50.529Z,3.63
2022-11-25T00:31:29.297Z,3.80
2022-11-25T00:33:57.237Z,4.03
2022-11-25T00:36:30.867Z,4.00
2022-11-25T00:39:05.282Z,3.80
2022-11-25T00:41:51.440Z,3.73
2022-11-25T00:44:37.553Z,5.27
2022-11-25T00:47:06.939Z,3.33
2022-11-25T00:49:34.657Z,3.43
2022-11-25T00:52:02.508Z,3.03
2022-11-25T00:54:29.805Z,4.63
2022-11-25T00:56:57.942Z,5.53
2022-11-25T00:59:25.394Z,2.87
2022-11-25T01:01:52.831Z,3.13
2022-11-25T01:04:20.229Z,3.90
2022-11-25T01:06:47.670Z,3.17
2022-11-25T01:09:15.757Z,3.03
2022-11-25T01:11:43.091Z,4.87
2022-11-25T01:14:10.531Z,2.90
2022-11-25T01:16:38.002Z,3.53
2022-11-25T01:19:08.392Z,2.83
2022-11-25T01:21:35.593Z,3.97
2022-11-25T01:24:04.418Z,3.87
2022-11-25T01:26:35.629Z,3.23
2022-11-25T01:29:05.786Z,4.67
2022-11-25T01:31:36.463Z,3.00
2022-11-25T01:34:12.022Z,2.57
2022-11-25T01:36:39.722Z,2.37
2022-11-25T01:39:06.914Z,3.80
2022-11-25T01:41:35.194Z,2.53
2022-11-25T01:44:13.262Z,3.00
2022-11-25T01:46:57.622Z,3.43
2022-11-25T01:49:27.319Z,3.20
2022-11-25T01:52:07.499Z,2.60
2022-11-25T01:54:42.734Z,2.40
2022-11-25T01:57:15.142Z,2.43
2022-11-25T01:59:48.703Z,3.23
2022-11-25T02:02:17.300Z,3.63
2022-11-25T02:04:47.246Z,2.30
2022-11-25T02:07:34.855Z,2.33
2022-11-25T02:10:16.277Z,3.57
2022-11-25T02:12:45.941Z,3.40
2022-11-25T02:15:15.185Z,3.07
2022-11-25T02:17:45.971Z,2.53
2022-11-25T02:20:16.636Z,2.77
2022-11-25T02:23:02.402Z,3.20
2022-11-25T02:25:32.939Z,3.03
2022-11-25T02:28:05.929Z,2.40
2022-11-25T02:30:33.993Z,2.33
2022-11-25T02:33:01.646Z,2.17
2022-11-25T02:35:31.039Z,2.40
2022-11-25T02:38:22.337Z,2.30
2022-11-25T02:40:58.821Z,2.47
2022-11-25T02:43:27.063Z,2.80
2022-11-25T02:46:03.868Z,3.20
2022-11-25T02:49:06.780Z,2.27
2022-11-25T02:51:24.010Z,2.43
2022-11-25T02:53:51.655Z,2.20
2022-11-25T02:56:22.202Z,2.83
2022-11-25T02:58:49.375Z,1.80
2022-11-25T03:01:17.193Z,2.63
2022-11-25T03:03:44.463Z,1.90
2022-11-25T03:06:11.819Z,2.30
2022-11-25T03:08:39.234Z,2.10
2022-11-25T03:11:09.869Z,2.43
2022-11-25T03:13:38.521Z,2.57
2022-11-25T03:16:06.551Z,2.23
2022-11-25T03:18:34.308Z,2.20
2022-11-25T03:21:01.482Z,2.30
2022-11-25T03:23:28.646Z,2.07
2022-11-25T03:25:57.382Z,2.07
2022-11-25T03:28:24.579Z,2.73
2022-11-25T03:30:51.990Z,2.63
2022-11-25T03:33:19.227Z,2.13
2022-11-25T03:35:48.670Z,2.17
2022-11-25T03:38:15.821Z,1.93
2022-11-25T03:40:43.161Z,2.90
2022-11-25T03:43:10.707Z,4.27
2022-11-25T03:45:40.425Z,1.70
2022-11-25T03:48:09.118Z,2.20
2022-11-25T03:50:37.622Z,2.33
2022-11-25T03:53:04.953Z,1.70
2022-11-25T03:55:32.205Z,2.57
2022-11-25T03:58:00.485Z,2.40
2022-11-25T04:00:29.094Z,2.10
2022-11-25T04:03:03.046Z,3.97
2022-11-25T04:05:32.714Z,2.17
2022-11-25T04:08:04.416Z,2.77
2022-11-25T04:10:33.430Z,2.90
2022-11-25T04:13:00.963Z,2.63
2022-11-25T04:15:35.741Z,4.43
2022-11-25T04:18:02.987Z,1.80
2022-11-25T04:20:32.581Z,3.23
2022-11-25T04:23:06.120Z,2.90
2022-11-25T04:25:36.532Z,2.77
2022-11-25T04:28:11.870Z,2.77
2022-11-25T04:30:39.586Z,2.30
2022-11-25T04:33:06.933Z,4.13
2022-11-25T04:35:34.148Z,2.10
2022-11-25T04:38:01.945Z,2.93
2022-11-25T04:40:29.990Z,2.13
2022-11-25T04:43:12.989Z,3.43
2022-11-25T04:48:35.614Z,2.70
2022-11-25T04:51:04.129Z,3.03
2022-11-25T04:53:31.561Z,2.30
2022-11-25T04:55:59.018Z,2.30
2022-11-25T04:58:45.950Z,3.23
2022-11-25T05:01:13.333Z,2.40
2022-11-25T05:03:53.002Z,3.10
2022-11-25T05:06:23.338Z,2.73
2022-11-25T05:08:51.073Z,2.50
2022-11-25T05:11:18.951Z,2.73
2022-11-25T05:13:46.286Z,3.77
2022-11-25T05:16:13.732Z,1.87
2022-11-25T05:18:40.966Z,2.37
2022-11-25T05:21:08.475Z,2.70
2022-11-25T05:23:39.945Z,2.10
2022-11-25T05:26:07.148Z,1.90
2022-11-25T05:28:41.635Z,2.60
2022-11-25T05:31:10.660Z,2.30
2022-11-25T05:33:38.420Z,2.50
2022-11-25T05:36:07.141Z,2.67
2022-11-25T05:38:43.249Z,2.30
2022-11-25T05:41:13.400Z,2.67
2022-11-25T05:43:42.915Z,2.13
2022-11-25T05:46:10.413Z,3.03
2022-11-25T05:48:44.022Z,3.60
2022-11-25T05:51:11.518Z,2.43
2022-11-25T05:53:39.689Z,3.47
2022-11-25T05:56:08.014Z,4.30
2022-11-25T05:58:54.956Z,4.03
2022-11-25T06:01:23.822Z,6.23
2022-11-25T06:03:51.304Z,3.67
2022-11-25T06:06:18.889Z,3.60
2022-11-25T06:08:46.205Z,3.50
2022-11-25T06:11:16.375Z,3.50
2022-11-25T06:13:44.970Z,4.13
2022-11-25T06:16:17.757Z,3.23
2022-11-25T06:18:49.238Z,3.80
2022-11-25T06:21:17.304Z,2.23
2022-11-25T06:23:47.191Z,2.63
2022-11-25T06:26:19.654Z,2.67
2022-11-25T06:28:48.041Z,3.53
2022-11-25T06:31:18.313Z,2.90
2022-11-25T06:34:06.355Z,2.70
2022-11-25T06:36:33.630Z,2.67
2022-11-25T06:39:00.770Z,2.33
2022-11-25T06:41:27.917Z,3.70
2022-11-25T06:43:55.322Z,2.30
2022-11-25T06:46:25.227Z,2.30
2022-11-25T06:48:53.841Z,2.30
2022-11-25T06:51:21.174Z,2.43
2022-11-25T06:53:48.389Z,2.60
2022-11-25T06:56:18.768Z,3.00
2022-11-25T06:58:47.560Z,4.03
2022-11-25T07:01:16.380Z,3.87
2022-11-25T07:03:44.846Z,3.17
2022-11-25T07:06:16.417Z,3.10
2022-11-25T07:08:44.296Z,3.47
2022-11-25T07:11:23.545Z,3.70
2022-11-25T07:13:56.654Z,5.07
2022-11-25T07:16:24.318Z,6.57
2022-11-25T07:18:51.555Z,6.57
2022-11-25T07:21:20.851Z,3.93
2022-11-25T07:23:49.030Z,3.33
2022-11-25T07:26:22.105Z,3.80
2022-11-25T07:28:50.627Z,5.13
2022-11-25T07:31:29.085Z,2.83
2022-11-25T07:34:10.996Z,4.13
2022-11-25T07:36:39.126Z,3.07
2022-11-25T07:39:10.750Z,3.53
2022-11-25T07:41:38.379Z,5.57
2022-11-25T07:44:06.373Z,4.03
2022-11-25T07:46:47.313Z,3.20
2022-11-25T07:49:20.700Z,4.77
2022-11-25T07:51:53.779Z,7.30
2022-11-25T07:54:22.006Z,4.40
2022-11-25T07:56:50.808Z,6.37
2022-11-25T07:59:20.923Z,6.27
2022-11-25T08:01:52.889Z,6.67
2022-11-25T08:04:21.236Z,6.77
2022-11-25T08:06:50.834Z,4.17
2022-11-25T08:09:20.332Z,9.03
2022-11-25T08:11:48.361Z,4.27
2022-11-25T08:14:16.421Z,9.77
2022-11-25T08:16:44.388Z,5.40
2022-11-25T08:19:14.803Z,7.47
2022-11-25T08:21:42.368Z,4.90
2022-11-25T08:24:16.521Z,5.83
2022-11-25T08:26:43.698Z,6.27
2022-11-25T08:29:14.297Z,6.47
2022-11-25T08:31:42.566Z,5.00
2022-11-25T08:34:20.839Z,4.53
2022-11-25T08:36:49.786Z,3.13
2022-11-25T08:42:06.518Z,9.20
2022-11-25T08:44:34.202Z,8.93
2022-11-25T08:47:01.445Z,7.30
2022-11-25T08:49:31.146Z,4.10
2022-11-25T08:52:00.912Z,4.23
2022-11-25T08:54:28.052Z,4.80
2022-11-25T08:56:55.181Z,4.50
2022-11-25T08:59:22.822Z,3.97
2022-11-25T09:01:50.035Z,4.80
2022-11-25T09:04:17.375Z,4.83
2022-11-25T09:06:44.537Z,3.87
2022-11-25T09:09:11.744Z,3.67
2022-11-25T09:11:38.988Z,3.30
2022-11-25T09:14:06.362Z,3.03
2022-11-25T09:16:33.634Z,3.40
2022-11-25T09:19:00.859Z,3.77
2022-11-25T09:21:28.242Z,2.23
2022-11-25T09:23:55.383Z,2.90
2022-11-25T09:26:25.811Z,2.43
2022-11-25T09:28:53.417Z,3.70
2022-11-25T09:31:21.320Z,6.23
2022-11-25T09:33:48.879Z,11.30
2022-11-25T09:36:17.575Z,3.07
2022-11-25T09:38:45.069Z,5.57
2022-11-25T09:41:44.212Z,5.03
2022-11-25T09:45:20.327Z,7.97
2022-11-25T09:48:08.515Z,4.03
2022-11-25T09:50:50.465Z,4.73
2022-11-25T09:53:32.686Z,6.63
2022-11-25T09:56:04.316Z,6.87
2022-11-25T09:58:37.255Z,5.97
2022-11-25T10:01:12.120Z,7.70
2022-11-25T10:03:44.360Z,5.90
2022-11-25T10:06:27.226Z,12.60
2022-11-25T10:09:06.991Z,14.73
2022-11-25T10:11:50.535Z,3.93
2022-11-25T10:14:42.621Z,7.10
2022-11-25T10:17:09.736Z,4.73
2022-11-25T10:19:45.423Z,8.53
2022-11-25T10:22:23.376Z,28.63
2022-11-25T10:24:54.006Z,19.67
2022-11-25T10:27:47.300Z,3.17
2022-11-25T10:30:24.961Z,7.87
2022-11-25T10:33:18.919Z,11.57
2022-11-25T10:35:52.319Z,3.40
2022-11-25T10:38:54.570Z,5.20
2022-11-25T10:41:27.251Z,4.90
2022-11-25T10:43:54.607Z,10.27
2022-11-25T10:47:12.302Z,9.50
2022-11-25T10:49:45.915Z,5.20
2022-11-25T10:52:14.478Z,3.17
2022-11-25T10:54:41.876Z,5.03
2022-11-25T10:57:20.543Z,3.63
2022-11-25T10:59:58.702Z,2.20
2022-11-25T11:02:37.097Z,2.70
2022-11-25T11:05:04.275Z,2.93
2022-11-25T11:07:38.155Z,4.53
2022-11-25T11:10:14.392Z,1.87
2022-11-25T11:13:30.122Z,3.70
2022-11-25T11:15:57.887Z,3.50
2022-11-25T11:18:37.303Z,3.37
2022-11-25T11:21:07.341Z,2.20
2022-11-25T11:23:49.286Z,2.30
2022-11-25T11:26:28.664Z,3.63
2022-11-25T11:28:58.782Z,6.27
2022-11-25T11:31:35.156Z,1.90
2022-11-25T11:34:29.483Z,4.43
2022-11-25T11:37:21.517Z,2.93
2022-11-25T11:39:51.675Z,2.93
2022-11-25T11:42:18.819Z,3.07
2022-11-25T11:45:11.731Z,4.07
2022-11-25T11:47:53.992Z,3.13
2022-11-25T11:50:47.459Z,3.90
2022-11-25T11:53:51.598Z,3.40
2022-11-25T11:56:35.999Z,4.80
2022-11-25T11:59:30.658Z,2.53
2022-11-25T12:02:13.123Z,5.07
2022-11-25T12:05:21.879Z,5.37
2022-11-25T12:08:03.117Z,7.03
2022-11-25T12:10:37.940Z,5.27
2022-11-25T12:13:30.525Z,6.27
2022-11-25T12:16:15.753Z,7.90
2022-11-25T12:19:07.035Z,4.07
2022-11-25T12:21:42.401Z,27.20
2022-11-25T12:24:26.570Z,4.27
2022-11-25T12:27:08.523Z,15.33
2022-11-25T12:29:53.815Z,4.27
2022-11-25T12:32:58.557Z,3.63
2022-11-25T12:35:37.490Z,20.00
2022-11-25T12:38:04.596Z,4.07
2022-11-25T12:40:54.666Z,3.83
2022-11-25T12:43:34.361Z,2.23
2022-11-25T12:46:16.711Z,2.80
2022-11-25T12:48:44.135Z,2.30
2022-11-25T12:51:42.358Z,5.47
2022-11-25T12:54:35.715Z,2.53
2022-11-25T12:57:51.021Z,6.13
2022-11-25T13:03:45.984Z,8.17
2022-11-25T13:06:32.027Z,4.50
2022-11-25T13:09:38.622Z,4.70
2022-11-25T13:12:22.863Z,4.50
2022-11-25T13:15:02.988Z,5.60
2022-11-25T13:17:41.675Z,28.80
2022-11-25T13:20:26.837Z,5.47
2022-11-25T13:23:11.084Z,5.67
2022-11-25T13:25:41.078Z,4.53
2022-11-25T13:28:29.280Z,3.30
2022-11-25T13:31:17.646Z,2.80
2022-11-25T13:33:44.829Z,4.93
2022-11-25T13:36:26.146Z,4.77
2022-11-25T13:38:53.236Z,9.20
2022-11-25T13:41:20.405Z,9.97
2022-11-25T13:44:01.723Z,3.27
2022-11-25T13:46:42.406Z,3.37
2022-11-25T13:49:38.390Z,6.20
2022-11-25T13:52:11.504Z,6.10
2022-11-25T13:54:50.822Z,4.83
2022-11-25T13:57:30.628Z,5.47
2022-11-25T14:00:10.299Z,5.53
2022-11-25T14:02:44.959Z,3.77
2022-11-25T14:05:46.678Z,4.57
2022-11-25T14:08:35.779Z,4.50
2022-11-25T14:11:38.511Z,6.10
2022-11-25T14:14:49.996Z,3.07
2022-11-25T14:17:47.901Z,4.33
2022-11-25T14:20:15.087Z,4.00
2022-11-25T14:23:22.641Z,7.33
2022-11-25T14:26:01.530Z,4.17
2022-11-25T14:28:52.014Z,6.10
2022-11-25T14:31:27.018Z,5.03
2022-11-25T14:34:00.132Z,5.87
2022-11-25T14:36:54.246Z,5.50
2022-11-25T14:39:58.266Z,3.13
2022-11-25T14:42:31.291Z,4.80
2022-11-25T14:44:59.216Z,5.37
2022-11-25T14:47:28.978Z,6.13
2022-11-25T14:50:32.867Z,4.70
2022-11-25T14:52:47.726Z,5.87
2022-11-25T14:55:29.302Z,4.93
2022-11-25T14:57:56.760Z,3.63
2022-11-25T15:00:24.152Z,6.53
2022-11-25T15:03:03.333Z,7.23
2022-11-25T15:05:39.019Z,6.47
2022-11-25T15:08:17.777Z,4.37
2022-11-25T15:10:51.631Z,4.57
2022-11-25T15:14:01.728Z,6.27
2022-11-25T15:16:40.364Z,6.73
2022-11-25T15:19:17.000Z,7.90
2022-11-25T15:22:20.691Z,6.40
2022-11-25T15:24:41.444Z,4.77
2022-11-25T15:27:28.963Z,4.53
2022-11-25T15:29:57.602Z,3.90
2022-11-25T15:32:28.145Z,5.53
2022-11-25T15:34:58.066Z,6.63
2022-11-25T15:37:25.425Z,8.80
2022-11-25T15:40:30.119Z,6.23
2022-11-25T15:43:02.326Z,7.40
2022-11-25T15:45:45.513Z,7.80
2022-11-25T15:48:26.530Z,8.27
2022-11-25T15:51:21.888Z,7.63
2022-11-25T15:54:20.505Z,9.07
2022-11-25T15:56:53.806Z,9.63
2022-11-25T15:59:51.408Z,8.43
2022-11-25T16:02:41.314Z,5.70
2022-11-25T16:05:27.243Z,10.07
2022-11-25T16:07:54.730Z,6.53
2022-11-25T16:10:40.533Z,6.20
2022-11-25T16:13:23.279Z,8.27
2022-11-25T16:16:09.504Z,8.73
2022-11-25T16:18:40.918Z,7.97
2022-11-25T16:21:10.419Z,6.23
2022-11-25T16:23:42.388Z,7.63
2022-11-25T16:26:12.573Z,8.30
2022-11-25T16:28:41.663Z,7.63
2022-11-25T16:31:16.677Z,6.53
2022-11-25T16:33:43.880Z,6.70
2022-11-25T16:36:11.028Z,8.83
2022-11-25T16:38:38.178Z,7.07
2022-11-25T16:41:11.899Z,7.50
2022-11-25T16:43:40.073Z,6.10
2022-11-25T16:46:07.530Z,6.77
2022-11-25T16:48:34.903Z,6.17
2022-11-25T16:51:02.819Z,7.83
2022-11-25T16:53:29.961Z,8.30
2022-11-25T16:55:57.202Z,8.60
2022-11-25T16:58:25.062Z,6.00
2022-11-25T17:00:55.738Z,6.67
2022-11-25T17:03:26.827Z,10.13
2022-11-25T17:05:55.083Z,4.33
2022-11-25T17:08:22.507Z,6.43
2022-11-25T17:10:50.200Z,7.10
2022-11-25T17:13:25.598Z,6.97
2022-11-25T17:15:52.995Z,5.63
2022-11-25T17:18:20.502Z,7.30
2022-11-25T17:20:47.723Z,7.37
2022-11-25T17:23:16.797Z,6.43
2022-11-25T17:25:47.561Z,7.20
2022-11-25T17:28:17.557Z,6.67
2022-11-25T17:30:46.595Z,5.47
2022-11-25T17:33:17.051Z,9.17
2022-11-25T17:35:44.923Z,8.13
2022-11-25T17:38:20.321Z,8.03
2022-11-25T17:40:48.071Z,10.97
2022-11-25T17:43:19.019Z,7.77
2022-11-25T17:45:47.026Z,8.87
2022-11-25T17:48:16.585Z,8.63
2022-11-25T17:50:43.969Z,9.43
2022-11-25T17:53:11.103Z,9.63
2022-11-25T17:55:39.690Z,9.43
2022-11-25T17:58:08.506Z,10.77
2022-11-25T18:00:36.158Z,8.33
2022-11-25T18:03:08.944Z,8.27
2022-11-25T18:05:36.195Z,10.30
2022-11-25T18:08:03.565Z,10.30
2022-11-25T18:10:30.775Z,11.90
2022-11-25T18:12:58.663Z,11.53
2022-11-25T18:15:29.498Z,10.03
2022-11-25T18:18:05.522Z,12.17
2022-11-25T18:20:33.220Z,10.13
2022-11-25T18:23:00.950Z,8.23
2022-11-25T18:25:31.971Z,8.40
2022-11-25T18:28:00.441Z,10.20
2022-11-25T18:30:30.512Z,9.77
2022-11-25T18:32:58.183Z,8.20
2022-11-25T18:35:32.530Z,8.33
2022-11-25T18:38:02.927Z,6.63
2022-11-25T18:40:30.467Z,6.83
2022-11-25T18:43:01.061Z,9.70
2022-11-25T18:45:33.043Z,6.63
2022-11-25T18:48:00.454Z,7.77
2022-11-25T18:50:28.201Z,7.27
2022-11-25T18:52:55.376Z,7.57
2022-11-25T18:55:23.416Z,7.80
2022-11-25T18:57:51.998Z,7.80
2022-11-25T19:00:32.160Z,9.63
2022-11-25T19:03:00.633Z,9.47
2022-11-25T19:05:33.239Z,9.27
2022-11-25T19:08:00.858Z,8.17
2022-11-25T19:10:31.614Z,9.63
2022-11-25T19:13:02.579Z,12.70
2022-11-25T19:15:29.769Z,8.60
2022-11-25T19:18:02.095Z,12.50
2022-11-25T19:20:30.199Z,10.23
2022-11-25T19:23:01.247Z,36.03
2022-11-25T19:25:29.285Z,10.27
2022-11-25T19:27:59.400Z,13.77
2022-11-25T19:30:29.902Z,12.57
2022-11-25T19:32:59.253Z,11.57
2022-11-25T19:35:46.863Z,24.70
2022-11-25T19:38:18.213Z,27.67
2022-11-25T19:40:45.513Z,14.90
2022-11-25T19:43:12.658Z,12.87
2022-11-25T19:45:40.154Z,16.47
2022-11-25T19:48:16.894Z,16.97
2022-11-25T19:50:46.635Z,14.57
2022-11-25T19:53:21.077Z,17.10
2022-11-25T19:55:48.893Z,21.50
2022-11-25T19:58:16.337Z,22.17
2022-11-25T20:00:45.801Z,16.37
2022-11-25T20:03:24.411Z,18.93
2022-11-25T20:05:54.498Z,11.33
2022-11-25T20:08:27.790Z,37.60
2022-11-25T20:10:55.935Z,10.53
2022-11-25T20:13:24.441Z,16.33
2022-11-25T20:15:53.551Z,20.40
2022-11-25T20:18:23.501Z,12.30
2022-11-25T20:20:58.239Z,12.93
2022-11-25T20:23:43.296Z,17.33
2022-11-25T20:26:17.674Z,17.53
2022-11-25T20:28:45.353Z,17.63
2022-11-25T20:31:13.679Z,26.63
2022-11-25T20:33:41.100Z,11.33
2022-11-25T20:36:14.017Z,16.00
2022-11-25T20:38:49.161Z,10.60
2022-11-25T20:41:16.867Z,9.87
2022-11-25T20:43:48.191Z,11.53
2022-11-25T20:46:30.186Z,13.50
2022-11-25T20:49:01.738Z,12.33
2022-11-25T20:51:29.339Z,12.93
2022-11-25T20:53:58.653Z,15.20
2022-11-25T20:56:27.011Z,9.90
2022-11-25T20:58:54.286Z,12.43
2022-11-25T21:01:21.799Z,12.17
2022-11-25T21:03:50.047Z,13.23
2022-11-25T21:06:18.613Z,12.67
2022-11-25T21:08:48.921Z,15.53
2022-11-25T21:11:17.214Z,12.30
2022-11-25T21:13:45.446Z,11.90
2022-11-25T21:16:12.733Z,10.97
2022-11-25T21:18:41.190Z,9.77
2022-11-25T21:21:18.991Z,14.63
2022-11-25T21:23:48.554Z,11.30
2022-11-25T21:26:21.505Z,12.53
2022-11-25T21:28:50.963Z,10.23
2022-11-25T21:31:20.953Z,10.10
2022-11-25T21:33:49.151Z,14.77
2022-11-25T21:36:20.851Z,10.07
2022-11-25T21:38:52.145Z,11.30
2022-11-25T21:41:19.535Z,11.53
2022-11-25T21:43:49.228Z,10.90
2022-11-25T21:46:21.894Z,12.20
2022-11-25T21:48:49.886Z,13.17
2022-11-25T21:51:24.695Z,13.70
2022-11-25T21:53:53.299Z,11.73
2022-11-25T21:56:28.545Z,10.70
2022-11-25T21:58:58.405Z,12.23
2022-11-25T22:01:25.726Z,10.77
2022-11-25T22:03:53.665Z,9.83
2022-11-25T22:06:22.606Z,12.57
2022-11-25T22:08:50.331Z,13.00
2022-11-25T22:11:21.214Z,13.23
2022-11-25T22:13:49.182Z,12.27
2022-11-25T22:16:24.332Z,14.73
2022-11-25T22:18:51.653Z,9.83
2022-11-25T22:21:18.855Z,11.37
2022-11-25T22:23:46.067Z,13.03
2022-11-25T22:26:20.941Z,10.90
2022-11-25T22:28:51.475Z,13.27
2022-11-25T22:31:20.227Z,10.77
2022-11-25T22:33:47.722Z,11.83
2022-11-25T22:36:26.531Z,11.60
2022-11-25T22:38:54.030Z,11.70
2022-11-25T22:41:21.198Z,10.80
2022-11-25T22:43:51.650Z,12.03
2022-11-25T22:46:19.162Z,13.37
2022-11-25T22:48:46.756Z,12.10
2022-11-25T22:51:20.902Z,11.70
2022-11-25T22:53:48.066Z,9.73
2022-11-25T22:56:19.575Z,12.37
2022-11-25T22:58:47.494Z,8.53
2022-11-25T23:01:16.789Z,11.73
2022-11-25T23:03:44.719Z,14.87
2022-11-25T23:06:13.390Z,11.43
2022-11-25T23:08:40.594Z,12.83
2022-11-25T23:11:19.414Z,12.50
2022-11-25T23:13:48.699Z,14.90
2022-11-25T23:16:16.196Z,9.70
2022-11-25T23:18:46.752Z,11.00
2022-11-25T23:21:21.332Z,10.83
2022-11-25T23:23:48.794Z,11.87
2022-11-25T23:26:16.544Z,14.57
2022-11-25T23:28:43.797Z,14.97
2022-11-25T23:31:13.823Z,12.43
2022-11-25T23:33:45.029Z,13.60
2022-11-25T23:36:25.853Z,13.60
2022-11-25T23:38:58.871Z,13.37
2022-11-25T23:41:32.689Z,12.10
2022-11-25T23:44:21.417Z,11.33
2022-11-25T23:46:48.896Z,10.30
2022-11-25T23:49:34.491Z,10.40
2022-11-25T23:52:07.864Z,10.57
2022-11-25T23:54:40.536Z,12.90
2022-11-25T23:57:15.286Z,13.30
2022-11-25T23:59:43.317Z,10.60
